Fire Weather Observation
Issued by NWS Grand Junction, CO

Home | Current Version | Previous Version | Text Only | Print | Product List | Glossary Off
Versions: 1 2 3 4 5 6 7 8 9 10 11 12 13 14 15 16 17 18 19 20 21 22 23 24 25 26 27 28 29 30 31 32 33 34 35 36 37 38 39 40 41 42 43 44 45 46 47 48 49 50

000
SHUS65 KGJT 142016
FWOGJT

DAILY FIRE WEATHER OBSERVATION
NATIONAL WEATHER SERVICE GRAND JUNCTION CO
112 PM  MON APR 14 2014

STATE OF THE WEATHER (W)               0
DRY BULB TEMPERATURE                   42   DEGREES FAHRENHEIT
RELATIVE HUMIDITY (RH)                 29   PERCENT
LIGHTNING ACTIVITY LEVEL
  (LAL - MIDNIGHT TO 2 PM)             1
WIND DIRECTION                         C    DEGREES (C IF CALM)
WIND SPEED                             0    MPH
MAX TEMP (2 PM - 2 PM)                 51   DEGREES FAHRENHEIT
MIN TEMP (2 PM - 2 PM)                 24   DEGREES FAHRENHEIT
MAX RH (2 PM - 2 PM)                   82   PERCENT
MIN RH (2 PM - 2 PM)                   29   PERCENT
PCPN DURATION                          1.8  HOURS
PCPN AMT (2 PM - 2 PM)                 0.01 INCHES
LAL (2 PM - 2 PM)                      2

$$

METAR KGJT 141953Z 00000KT 10SM CLR 06/M11 A3033 RMK AO2 SLP277
      T00561111



USA.gov is the U.S. government's official web portal to all federal, state and local government web resources and services.